CheckWX is a tool to help pilots better visualize weather data.  It is not intended as a substitute for an official pre-flight weather briefing.

21:04:56 UTC

KNQX METAR
Key West NAS / Boca Chica Field Airport
Key West, Florida, USA
Current

12 mins ago

KNQX 232053Z 12011KT 10SM FEW025 29/22 A3005 RMK AO2 SLP176 T02940222 56016 $
Observed
Feb-23 @ 20:53 UTC
Wind
  • 120° at 11 KTS
Visibility
10 SM
Flight Rules
VFR
Cloud Levels
  • Few at 2,500' AGL
Temperature
29°C / 84°F
Dewpoint
22°C / 72°F
Humidity
66%
Altimeter
30.05" Hg
Pressure
1017.6 hPa
Previous

1 hour ago

KNQX 231953Z 13014KT 10SM FEW025 29/22 A3006 RMK AO2 SLP178 T02940222 $
Observed
Feb-23 @ 19:53 UTC
Wind
  • 130° at 14 KTS
Visibility
10 SM
Flight Rules
VFR
Cloud Levels
  • Few at 2,500' AGL
Temperature
29°C / 84°F
Dewpoint
22°C / 72°F
Humidity
66%
Altimeter
30.06" Hg
Pressure
1017.8 hPa
Previous

2 hours ago

KNQX 231853Z 13014KT 10SM FEW025 30/23 A3008 RMK AO2 SLP183 T03000228 $
Observed
Feb-23 @ 18:53 UTC
Wind
  • 130° at 14 KTS
Visibility
10 SM
Flight Rules
VFR
Cloud Levels
  • Few at 2,500' AGL
Temperature
30°C / 86°F
Dewpoint
23°C / 73°F
Humidity
66%
Altimeter
30.08" Hg
Pressure
1018.3 hPa